Terminal Aerodrome Forecast
Issued by NWS Charleston, WV

Current Version | Previous Version | Graphics & Text | Print | Product List | Glossary Off
Versions: 1 2 3 4 5 6 7 8 9 10 11 12 13 14 15 16 17 18 19 20 21 22 23 24 25 26 27 28

000
FTUS41 KRLX 300538
TAFEKN
TAF
KEKN 300538Z 3006/3106 00000KT 3SM BR BKN080
     FM300800 00000KT 1SM BR SCT002
      TEMPO 3008/3011 1/2SM FG BKN002
     FM301200 00000KT 4SM BR SCT045
     FM301300 VRB03KT P6SM SCT045
     FM301600 22005KT P6SM VCTS BKN035CB
     FM302300 19004KT P6SM BKN040
     FM310100 VRB03KT P6SM SCT050=

USA.gov is the U.S. government's official web portal to all federal, state and local government web resources and services.